createdAt,value
2023-04-07T00:00:42.231Z,51.216125
2023-04-07T00:01:42.266Z,51.216129
2023-04-07T00:02:44.388Z,51.216148
2023-04-07T00:03:43.278Z,51.216228
2023-04-07T00:04:42.242Z,51.216209
2023-04-07T00:05:42.201Z,51.216053
2023-04-07T00:06:42.197Z,51.216049
2023-04-07T00:07:55.187Z,51.216011
2023-04-07T00:08:44.184Z,51.216110
2023-04-07T00:09:42.181Z,51.216190
2023-04-07T00:10:42.177Z,51.216103
2023-04-07T00:11:42.163Z,51.216095
2023-04-07T00:12:42.156Z,51.216114
2023-04-07T00:13:42.144Z,51.216114
2023-04-07T00:14:42.162Z,51.216118
2023-04-07T00:15:42.188Z,51.216064
2023-04-07T00:16:42.129Z,51.216091
2023-04-07T00:17:42.181Z,51.216114
2023-04-07T00:18:42.131Z,51.216042
2023-04-07T00:19:42.153Z,51.216106
2023-04-07T00:20:42.117Z,51.216015
2023-04-07T00:21:42.106Z,51.216007
2023-04-07T00:22:42.094Z,51.216011
2023-04-07T00:23:42.103Z,51.215946
2023-04-07T00:24:42.078Z,51.216003
2023-04-07T00:25:42.202Z,51.215988
2023-04-07T00:26:42.076Z,51.215958
2023-04-07T00:27:42.073Z,51.215961
2023-04-07T00:28:42.061Z,51.215893
2023-04-07T00:29:42.053Z,51.215904
2023-04-07T00:30:42.061Z,51.216038
2023-04-07T00:31:42.079Z,51.215939
2023-04-07T00:32:42.081Z,51.216064
2023-04-07T00:33:42.048Z,51.216068
2023-04-07T00:34:42.033Z,51.216019
2023-04-07T00:35:42.040Z,51.216061
2023-04-07T00:36:42.005Z,51.216076
2023-04-07T00:37:42.008Z,51.216084
2023-04-07T00:38:42.003Z,51.216164
2023-04-07T00:39:42.026Z,51.216011
2023-04-07T00:40:41.989Z,51.216064
2023-04-07T00:41:41.983Z,51.216167
2023-04-07T00:42:41.977Z,51.216007
2023-04-07T00:43:41.972Z,51.215897
2023-04-07T00:44:41.968Z,51.215988
2023-04-07T00:45:41.969Z,51.215717
2023-04-07T00:46:42.009Z,51.215939
2023-04-07T00:47:41.993Z,51.216072
2023-04-07T00:48:41.934Z,51.216141
2023-04-07T00:49:41.933Z,51.216019
2023-04-07T00:50:41.927Z,51.215889
2023-04-07T00:51:41.912Z,51.215794
2023-04-07T00:52:41.928Z,51.215584
2023-04-07T00:53:41.917Z,51.215923
2023-04-07T00:54:41.888Z,51.215988
2023-04-07T00:55:41.898Z,51.216057
2023-04-07T00:56:43.246Z,51.216007
2023-04-07T00:57:42.890Z,51.216049
2023-04-07T00:58:41.885Z,51.216061
2023-04-07T00:59:41.865Z,51.216114
2023-04-07T01:00:41.865Z,51.216099
2023-04-07T01:01:41.946Z,51.216011
2023-04-07T01:02:42.089Z,51.215923
2023-04-07T01:03:42.077Z,51.215973
2023-04-07T01:04:41.995Z,51.215866
2023-04-07T01:05:41.831Z,51.215958
2023-04-07T01:06:41.821Z,51.216049
2023-04-07T01:07:41.806Z,51.216103
2023-04-07T01:08:41.797Z,51.216095
2023-04-07T01:09:41.804Z,51.216042
2023-04-07T01:10:41.810Z,51.216057
2023-04-07T01:11:41.791Z,51.216106
2023-04-07T01:12:41.771Z,51.216099
2023-04-07T01:13:41.783Z,51.216148
2023-04-07T01:14:41.767Z,51.216042
2023-04-07T01:15:41.808Z,51.216099
2023-04-07T01:16:41.991Z,51.216156
2023-04-07T01:17:41.794Z,51.215992
2023-04-07T01:18:41.747Z,51.215893
2023-04-07T01:19:41.728Z,51.215885
2023-04-07T01:20:41.749Z,51.216076
2023-04-07T01:21:41.710Z,51.216034
2023-04-07T01:22:41.715Z,51.216091
2023-04-07T01:23:41.717Z,51.216068
2023-04-07T01:24:41.686Z,51.216194
2023-04-07T01:25:41.712Z,51.216034
2023-04-07T01:26:41.708Z,51.216053
2023-04-07T01:27:41.679Z,51.216022
2023-04-07T01:28:41.664Z,51.216026
2023-04-07T01:29:41.675Z,51.216099
2023-04-07T01:30:41.686Z,51.216103
2023-04-07T01:31:41.773Z,51.216011
2023-04-07T01:32:41.692Z,51.216053
2023-04-07T01:33:41.635Z,51.216038
2023-04-07T01:34:41.636Z,51.215950
2023-04-07T01:35:41.625Z,51.215893
2023-04-07T01:36:41.643Z,51.215950
2023-04-07T01:37:41.635Z,51.215988
2023-04-07T01:38:41.600Z,51.215858
2023-04-07T01:39:41.604Z,51.215923
2023-04-07T01:40:41.598Z,51.216087
2023-04-07T01:41:41.585Z,51.216114
2023-04-07T01:42:41.582Z,51.216042
2023-04-07T01:43:41.910Z,51.216026
2023-04-07T01:44:41.565Z,51.216064
2023-04-07T01:45:41.558Z,51.215942
2023-04-07T01:46:41.576Z,51.215862
2023-04-07T01:47:41.561Z,51.215958
2023-04-07T01:48:41.551Z,51.216026
2023-04-07T01:49:41.541Z,51.216064
2023-04-07T01:50:41.547Z,51.216072
2023-04-07T01:51:41.527Z,51.216057
2023-04-07T01:52:41.510Z,51.216068
2023-04-07T01:53:41.502Z,51.216019
2023-04-07T01:54:41.505Z,51.215919
2023-04-07T01:55:41.477Z,51.215977
2023-04-07T01:56:42.491Z,51.216057
2023-04-07T01:57:41.480Z,51.216042
2023-04-07T01:58:41.487Z,51.216091
2023-04-07T01:59:41.464Z,51.216091
2023-04-07T02:00:41.449Z,51.216064
2023-04-07T02:01:41.584Z,51.216129
2023-04-07T02:02:41.646Z,51.216167
2023-04-07T02:03:41.674Z,51.216156
2023-04-07T02:04:41.434Z,51.216049
2023-04-07T02:05:41.422Z,51.216045
2023-04-07T02:06:41.412Z,51.216042
2023-04-07T02:07:41.404Z,51.216064
2023-04-07T02:08:41.429Z,51.216076
2023-04-07T02:09:41.424Z,51.216026
2023-04-07T02:10:41.392Z,51.216022
2023-04-07T02:11:41.384Z,51.216049
2023-04-07T02:12:41.417Z,51.216064
2023-04-07T02:13:41.373Z,51.216084
2023-04-07T02:14:41.799Z,51.216030
2023-04-07T02:15:41.360Z,51.216022
2023-04-07T02:16:41.394Z,51.216042
2023-04-07T02:17:41.399Z,51.216022
2023-04-07T02:18:41.333Z,51.215954
2023-04-07T02:19:41.369Z,51.215908
2023-04-07T02:20:41.323Z,51.216057
2023-04-07T02:21:41.325Z,51.216007
2023-04-07T02:22:41.333Z,51.216045
2023-04-07T02:23:41.321Z,51.216030
2023-04-07T02:24:41.316Z,51.216129
2023-04-07T02:25:41.316Z,51.216125
2023-04-07T02:26:41.298Z,51.216225
2023-04-07T02:27:41.689Z,51.216129
2023-04-07T02:28:41.279Z,51.216106
2023-04-07T02:29:41.281Z,51.216068
2023-04-07T02:30:41.264Z,51.216045
2023-04-07T02:31:41.287Z,51.216015
2023-04-07T02:32:41.318Z,51.215969
2023-04-07T02:33:41.252Z,51.215908
2023-04-07T02:34:41.236Z,51.215897
2023-04-07T02:35:41.240Z,51.215801
2023-04-07T02:36:41.277Z,51.215828
2023-04-07T02:37:41.231Z,51.216030
2023-04-07T02:38:41.212Z,51.215950
2023-04-07T02:39:41.218Z,51.215931
2023-04-07T02:40:41.211Z,51.216057
2023-04-07T02:41:41.200Z,51.216305
2023-04-07T02:42:41.219Z,51.216251
2023-04-07T02:43:41.187Z,51.216187
2023-04-07T02:44:41.174Z,51.216129
2023-04-07T02:45:41.206Z,51.216133
2023-04-07T02:46:41.165Z,51.216137
2023-04-07T02:47:42.214Z,51.216095
2023-04-07T02:48:41.160Z,51.216026
2023-04-07T02:49:41.150Z,51.216110
2023-04-07T02:50:41.144Z,51.216099
2023-04-07T02:51:41.131Z,51.216007
2023-04-07T02:52:41.133Z,51.216026
2023-04-07T02:53:41.116Z,51.216091
2023-04-07T02:54:41.113Z,51.215885
2023-04-07T02:55:41.117Z,51.215927
2023-04-07T02:56:41.098Z,51.215969
2023-04-07T02:57:41.153Z,51.216156
2023-04-07T02:58:41.084Z,51.216095
2023-04-07T02:59:41.080Z,51.216091
2023-04-07T03:00:41.070Z,51.215923
2023-04-07T03:01:41.193Z,51.216045
2023-04-07T03:02:41.170Z,51.216167
2023-04-07T03:03:41.144Z,51.216118
2023-04-07T03:04:41.082Z,51.216034
2023-04-07T03:05:41.047Z,51.215988
2023-04-07T03:06:41.039Z,51.216114
2023-04-07T03:07:41.034Z,51.216068
2023-04-07T03:08:41.033Z,51.216103
2023-04-07T03:09:41.021Z,51.216076
2023-04-07T03:10:41.037Z,51.216042
2023-04-07T03:11:41.005Z,51.216095
2023-04-07T03:12:41.002Z,51.216053
2023-04-07T03:13:40.991Z,51.216022
2023-04-07T03:14:40.994Z,51.216125
2023-04-07T03:15:40.993Z,51.216122
2023-04-07T03:16:41.023Z,51.216125
2023-04-07T03:17:41.004Z,51.216122
2023-04-07T03:18:40.958Z,51.216137
2023-04-07T03:19:40.957Z,51.216106
2023-04-07T03:20:40.952Z,51.216118
2023-04-07T03:21:40.941Z,51.216095
2023-04-07T03:22:40.936Z,51.216122
2023-04-07T03:23:40.929Z,51.216114
2023-04-07T03:24:40.936Z,51.216084
2023-04-07T03:25:40.970Z,51.216106
2023-04-07T03:26:40.938Z,51.216068
2023-04-07T03:27:40.910Z,51.216007
2023-04-07T03:28:40.902Z,51.216064
2023-04-07T03:29:40.891Z,51.216080
2023-04-07T03:30:40.899Z,51.216015
2023-04-07T03:31:40.888Z,51.215965
2023-04-07T03:32:40.934Z,51.215912
2023-04-07T03:33:40.876Z,51.215984
2023-04-07T03:34:40.846Z,51.215958
2023-04-07T03:35:40.900Z,51.216084
2023-04-07T03:36:40.841Z,51.216164
2023-04-07T03:37:40.844Z,51.216217
2023-04-07T03:38:40.842Z,51.216160
2023-04-07T03:39:40.822Z,51.216122
2023-04-07T03:40:40.814Z,51.216087
2023-04-07T03:41:40.814Z,51.216125
2023-04-07T03:42:40.797Z,51.216045
2023-04-07T03:43:40.815Z,51.216007
2023-04-07T03:44:40.802Z,51.216141
2023-04-07T03:45:40.781Z,51.216106
2023-04-07T03:46:40.835Z,51.216045
2023-04-07T03:47:40.767Z,51.216022
2023-04-07T03:48:40.806Z,51.215996
2023-04-07T03:49:40.753Z,51.216118
2023-04-07T03:50:40.744Z,51.216080
2023-04-07T03:51:40.748Z,51.216103
2023-04-07T03:52:40.728Z,51.216129
2023-04-07T03:53:40.729Z,51.216106
2023-04-07T03:54:40.742Z,51.216125
2023-04-07T03:55:40.721Z,51.216148
2023-04-07T03:56:40.704Z,51.216240
2023-04-07T03:57:40.695Z,51.216133
2023-04-07T03:58:40.690Z,51.216133
2023-04-07T03:59:40.702Z,51.216114
2023-04-07T04:00:40.695Z,51.216095
2023-04-07T04:01:40.720Z,51.216057
2023-04-07T04:02:40.744Z,51.216156
2023-04-07T04:03:40.777Z,51.216064
2023-04-07T04:04:40.663Z,51.215977
2023-04-07T04:05:40.672Z,51.215946
2023-04-07T04:06:40.650Z,51.216057
2023-04-07T04:07:40.643Z,51.216099
2023-04-07T04:08:40.623Z,51.216221
2023-04-07T04:09:40.623Z,51.216358
2023-04-07T04:10:40.641Z,51.216087
2023-04-07T04:11:40.622Z,51.215946
2023-04-07T04:12:40.996Z,51.215939
2023-04-07T04:13:40.593Z,51.215927
2023-04-07T04:14:40.589Z,51.215889
2023-04-07T04:15:40.601Z,51.215961
2023-04-07T04:16:40.708Z,51.216087
2023-04-07T04:17:40.609Z,51.216099
2023-04-07T04:18:40.601Z,51.216141
2023-04-07T04:19:40.578Z,51.216278
2023-04-07T04:20:40.546Z,51.216251
2023-04-07T04:21:40.544Z,51.216221
2023-04-07T04:22:40.537Z,51.216228
2023-04-07T04:23:40.556Z,51.216141
2023-04-07T04:24:40.526Z,51.216255
2023-04-07T04:25:40.519Z,51.216282
2023-04-07T04:26:40.542Z,51.216232
2023-04-07T04:27:40.511Z,51.216225
2023-04-07T04:28:40.519Z,51.216114
2023-04-07T04:29:40.495Z,51.215988
2023-04-07T04:30:40.491Z,51.216103
2023-04-07T04:31:40.517Z,51.216026
2023-04-07T04:32:40.532Z,51.216152
2023-04-07T04:33:40.783Z,51.216206
2023-04-07T04:34:40.462Z,51.216228
2023-04-07T04:35:40.470Z,51.216110
2023-04-07T04:36:40.479Z,51.215919
2023-04-07T04:37:40.446Z,51.215923
2023-04-07T04:38:40.437Z,51.215935
2023-04-07T04:39:40.438Z,51.215954
2023-04-07T04:40:41.424Z,51.215893
2023-04-07T04:41:40.471Z,51.215973
2023-04-07T04:42:40.431Z,51.216053
2023-04-07T04:43:40.439Z,51.216225
2023-04-07T04:44:40.476Z,51.216057
2023-04-07T04:45:40.398Z,51.216248
2023-04-07T04:46:40.412Z,51.216286
2023-04-07T04:47:40.431Z,51.216244
2023-04-07T04:48:40.398Z,51.216190
2023-04-07T04:49:40.455Z,51.216290
2023-04-07T04:50:40.372Z,51.216213
2023-04-07T04:51:40.368Z,51.216312
2023-04-07T04:52:40.351Z,51.216370
2023-04-07T04:53:40.347Z,51.216187
2023-04-07T04:54:40.361Z,51.216045
2023-04-07T04:55:40.330Z,51.216179
2023-04-07T04:56:40.321Z,51.216106
2023-04-07T04:57:40.324Z,51.215961
2023-04-07T04:58:40.308Z,51.215897
2023-04-07T04:59:40.307Z,51.215904
2023-04-07T05:00:40.338Z,51.215992
2023-04-07T05:01:40.343Z,51.216019
2023-04-07T05:02:40.498Z,51.216003
2023-04-07T05:03:40.368Z,51.215981
2023-04-07T05:04:40.328Z,51.216114
2023-04-07T05:05:40.278Z,51.216068
2023-04-07T05:06:40.369Z,51.216015
2023-04-07T05:07:40.256Z,51.216019
2023-04-07T05:08:40.242Z,51.216072
2023-04-07T05:09:40.230Z,51.215950
2023-04-07T05:10:40.245Z,51.216072
2023-04-07T05:11:40.226Z,51.215824
2023-04-07T05:12:40.232Z,51.215832
2023-04-07T05:13:40.230Z,51.215900
2023-04-07T05:14:40.225Z,51.216026
2023-04-07T05:15:40.194Z,51.216118
2023-04-07T05:16:40.308Z,51.216190
2023-04-07T05:17:40.200Z,51.216152
2023-04-07T05:18:40.174Z,51.216087
2023-04-07T05:19:40.183Z,51.216087
2023-04-07T05:20:40.227Z,51.216080
2023-04-07T05:21:40.154Z,51.216122
2023-04-07T05:22:40.158Z,51.216133
2023-04-07T05:23:40.196Z,51.216141
2023-04-07T05:24:40.175Z,51.216145
2023-04-07T05:25:40.138Z,51.216194
2023-04-07T05:26:40.134Z,51.216156
2023-04-07T05:27:41.132Z,51.216095
2023-04-07T05:28:40.127Z,51.216114
2023-04-07T05:29:40.223Z,51.216087
2023-04-07T05:30:40.101Z,51.216057
2023-04-07T05:31:40.331Z,51.216114
2023-04-07T05:32:40.141Z,51.216118
2023-04-07T05:33:40.080Z,51.216202
2023-04-07T05:34:40.101Z,51.216072
2023-04-07T05:35:40.076Z,51.215965
2023-04-07T05:36:40.082Z,51.215908
2023-04-07T05:37:40.070Z,51.215809
2023-04-07T05:38:40.056Z,51.215828
2023-04-07T05:39:40.047Z,51.215996
2023-04-07T05:40:40.054Z,51.215881
2023-04-07T05:41:40.069Z,51.216068
2023-04-07T05:42:40.043Z,51.215977
2023-04-07T05:43:40.018Z,51.216084
2023-04-07T05:44:40.015Z,51.216080
2023-04-07T05:45:40.059Z,51.216133
2023-04-07T05:46:40.039Z,51.216175
2023-04-07T05:47:40.081Z,51.216103
2023-04-07T05:48:39.996Z,51.215996
2023-04-07T05:49:40.002Z,51.216045
2023-04-07T05:50:39.979Z,51.215977
2023-04-07T05:51:39.977Z,51.216225
2023-04-07T05:52:39.992Z,51.216160
2023-04-07T05:53:39.963Z,51.216179
2023-04-07T05:54:40.050Z,51.215961
2023-04-07T05:55:39.950Z,51.216003
2023-04-07T05:56:39.944Z,51.216076
2023-04-07T05:57:39.947Z,51.216114
2023-04-07T05:58:39.935Z,51.216011
2023-04-07T05:59:39.934Z,51.215996
2023-04-07T06:00:39.911Z,51.216064
2023-04-07T06:01:39.987Z,51.216064
2023-04-07T06:02:40.110Z,51.216057
2023-04-07T06:03:39.995Z,51.216179
2023-04-07T06:04:39.900Z,51.216133
2023-04-07T06:05:40.022Z,51.216015
2023-04-07T06:06:39.887Z,51.216015
2023-04-07T06:07:39.897Z,51.216072
2023-04-07T06:08:39.868Z,51.216164
2023-04-07T06:09:39.879Z,51.216187
2023-04-07T06:10:39.865Z,51.216240
2023-04-07T06:11:39.856Z,51.216213
2023-04-07T06:12:39.833Z,51.216145
2023-04-07T06:13:39.831Z,51.216084
2023-04-07T06:14:39.833Z,51.216152
2023-04-07T06:15:39.850Z,51.216190
2023-04-07T06:16:39.844Z,51.216187
2023-04-07T06:17:39.843Z,51.216187
2023-04-07T06:18:39.799Z,51.216160
2023-04-07T06:19:39.789Z,51.216198
2023-04-07T06:20:39.794Z,51.216217
2023-04-07T06:21:39.806Z,51.216145
2023-04-07T06:22:39.793Z,51.216087
2023-04-07T06:23:39.763Z,51.216118
2023-04-07T06:24:39.768Z,51.216057
2023-04-07T06:25:39.784Z,51.216068
2023-04-07T06:26:39.755Z,51.216080
2023-04-07T06:27:39.744Z,51.216110
2023-04-07T06:28:39.743Z,51.216080
2023-04-07T06:29:39.727Z,51.216110
2023-04-07T06:30:39.793Z,51.216125
2023-04-07T06:31:39.721Z,51.216103
2023-04-07T06:32:39.716Z,51.216068
2023-04-07T06:33:39.699Z,51.216091
2023-04-07T06:34:39.712Z,51.215965
2023-04-07T06:35:39.697Z,51.216057
2023-04-07T06:36:39.705Z,51.216030
2023-04-07T06:37:39.684Z,51.216049
2023-04-07T06:38:39.678Z,51.216103
2023-04-07T06:39:39.691Z,51.216091
2023-04-07T06:40:39.718Z,51.216106
2023-04-07T06:41:39.685Z,51.216072
2023-04-07T06:42:39.664Z,51.216148
2023-04-07T06:43:39.640Z,51.216221
2023-04-07T06:44:39.668Z,51.216217
2023-04-07T06:45:39.630Z,51.216206
2023-04-07T06:46:39.662Z,51.216190
2023-04-07T06:47:39.722Z,51.216118
2023-04-07T06:48:39.621Z,51.216099
2023-04-07T06:49:39.610Z,51.215939
2023-04-07T06:50:39.600Z,51.215996
2023-04-07T06:51:39.589Z,51.216022
2023-04-07T06:52:39.596Z,51.216080
2023-04-07T06:53:39.579Z,51.216087
2023-04-07T06:54:39.590Z,51.216133
2023-04-07T06:55:39.572Z,51.216106
2023-04-07T06:56:39.564Z,51.216133
2023-04-07T06:57:39.582Z,51.216141
2023-04-07T06:58:39.546Z,51.216129
2023-04-07T06:59:39.539Z,51.216152
2023-04-07T07:00:39.541Z,51.216175
2023-04-07T07:01:39.769Z,51.216091
2023-04-07T07:02:39.690Z,51.216114
2023-04-07T07:03:39.624Z,51.216152
2023-04-07T07:04:39.508Z,51.216164
2023-04-07T07:05:39.525Z,51.216080
2023-04-07T07:06:39.566Z,51.216057
2023-04-07T07:07:39.498Z,51.216103
2023-04-07T07:08:39.523Z,51.216106
2023-04-07T07:09:39.517Z,51.216064
2023-04-07T07:10:39.482Z,51.216152
2023-04-07T07:11:39.470Z,51.216171
2023-04-07T07:12:39.473Z,51.216145
2023-04-07T07:13:39.495Z,51.216118
2023-04-07T07:14:39.448Z,51.216106
2023-04-07T07:15:39.474Z,51.216148
2023-04-07T07:16:39.441Z,51.216080
2023-04-07T07:17:39.498Z,51.216068
2023-04-07T07:18:39.424Z,51.216049
2023-04-07T07:19:39.467Z,51.216106
2023-04-07T07:20:39.407Z,51.216042
2023-04-07T07:21:40.405Z,51.216030
2023-04-07T07:22:39.392Z,51.216053
2023-04-07T07:23:39.437Z,51.216072
2023-04-07T07:24:39.455Z,51.216072
2023-04-07T07:25:39.386Z,51.216095
2023-04-07T07:26:39.360Z,51.216106
2023-04-07T07:27:39.353Z,51.216122
2023-04-07T07:28:39.384Z,51.216148
2023-04-07T07:29:39.349Z,51.215973
2023-04-07T07:30:39.361Z,51.215969
2023-04-07T07:31:39.390Z,51.216007
2023-04-07T07:32:39.610Z,51.216068
2023-04-07T07:33:39.330Z,51.216099
2023-04-07T07:34:39.316Z,51.216141
2023-04-07T07:35:39.312Z,51.216103
2023-04-07T07:36:39.305Z,51.216080
2023-04-07T07:37:39.306Z,51.216034
2023-04-07T07:38:39.293Z,51.216015
2023-04-07T07:39:39.301Z,51.216042
2023-04-07T07:40:39.291Z,51.216122
2023-04-07T07:41:39.273Z,51.216045
2023-04-07T07:42:39.280Z,51.216122
2023-04-07T07:43:39.266Z,51.216110
2023-04-07T07:44:39.285Z,51.216160
2023-04-07T07:45:39.481Z,51.216175
2023-04-07T07:46:39.277Z,51.216156
2023-04-07T07:47:39.305Z,51.216209
2023-04-07T07:48:39.215Z,51.216202
2023-04-07T07:49:39.224Z,51.216141
2023-04-07T07:50:39.252Z,51.216045
2023-04-07T07:51:39.200Z,51.216137
2023-04-07T07:52:40.221Z,51.216072
2023-04-07T07:53:39.191Z,51.216026
2023-04-07T07:54:39.179Z,51.215981
2023-04-07T07:55:39.195Z,51.216255
2023-04-07T07:56:39.180Z,51.216068
2023-04-07T07:57:39.157Z,51.216137
2023-04-07T07:58:39.177Z,51.216103
2023-04-07T07:59:39.149Z,51.216164
2023-04-07T08:00:39.138Z,51.216145
2023-04-07T08:01:39.173Z,51.216148
2023-04-07T08:02:39.220Z,51.216171
2023-04-07T08:03:39.302Z,51.216156
2023-04-07T08:04:39.169Z,51.216084
2023-04-07T08:05:39.127Z,51.216103
2023-04-07T08:06:39.108Z,51.216042
2023-04-07T08:07:39.396Z,51.216045
2023-04-07T08:08:39.085Z,51.216125
2023-04-07T08:09:39.085Z,51.216133
2023-04-07T08:10:39.073Z,51.216091
2023-04-07T08:11:39.080Z,51.216068
2023-04-07T08:12:39.081Z,51.216061
2023-04-07T08:13:39.090Z,51.216110
2023-04-07T08:14:39.050Z,51.216099
2023-04-07T08:15:39.042Z,51.216167
2023-04-07T08:16:39.128Z,51.216164
2023-04-07T08:17:39.057Z,51.216145
2023-04-07T08:18:39.016Z,51.216133
2023-04-07T08:19:39.010Z,51.216148
2023-04-07T08:20:39.019Z,51.216061
2023-04-07T08:21:38.995Z,51.216042
2023-04-07T08:22:39.010Z,51.216137
2023-04-07T08:23:38.975Z,51.216137
2023-04-07T08:24:38.972Z,51.216042
2023-04-07T08:25:39.023Z,51.216053
2023-04-07T08:26:38.965Z,51.215969
2023-04-07T08:27:38.957Z,51.215988
2023-04-07T08:28:38.963Z,51.216133
2023-04-07T08:29:38.947Z,51.216049
2023-04-07T08:30:38.963Z,51.216080
2023-04-07T08:31:38.962Z,51.216084
2023-04-07T08:32:39.015Z,51.216042
2023-04-07T08:33:38.915Z,51.216114
2023-04-07T08:34:38.915Z,51.216026
2023-04-07T08:35:38.920Z,51.216099
2023-04-07T08:36:38.923Z,51.216087
2023-04-07T08:37:38.900Z,51.216103
2023-04-07T08:38:38.884Z,51.216061
2023-04-07T08:39:38.871Z,51.216068
2023-04-07T08:40:38.877Z,51.216183
2023-04-07T08:41:38.884Z,51.216240
2023-04-07T08:42:38.857Z,51.216190
2023-04-07T08:43:38.860Z,51.216156
2023-04-07T08:44:38.863Z,51.216053
2023-04-07T08:45:38.854Z,51.216091
2023-04-07T08:46:38.864Z,51.216045
2023-04-07T08:47:38.907Z,51.216053
2023-04-07T08:48:38.816Z,51.216049
2023-04-07T08:49:38.817Z,51.215992
2023-04-07T08:50:38.826Z,51.215946
2023-04-07T08:51:38.830Z,51.215916
2023-04-07T08:52:38.818Z,51.216034
2023-04-07T08:53:38.781Z,51.215965
2023-04-07T08:54:38.790Z,51.216015
2023-04-07T08:55:38.817Z,51.216084
2023-04-07T08:56:38.776Z,51.216122
2023-04-07T08:57:38.773Z,51.216049
2023-04-07T08:58:38.763Z,51.215981
2023-04-07T08:59:38.745Z,51.215874
2023-04-07T09:00:38.755Z,51.215881
2023-04-07T09:01:38.868Z,51.215961
2023-04-07T09:02:38.764Z,51.216038
2023-04-07T09:03:38.787Z,51.216057
2023-04-07T09:04:38.730Z,51.215961
2023-04-07T09:05:38.739Z,51.216057
2023-04-07T09:06:38.740Z,51.216045
2023-04-07T09:07:38.722Z,51.215904
2023-04-07T09:08:38.693Z,51.215832
2023-04-07T09:09:38.691Z,51.216038
2023-04-07T09:10:38.685Z,51.216152
2023-04-07T09:11:38.694Z,51.216133
2023-04-07T09:12:38.813Z,51.216057
2023-04-07T09:13:38.663Z,51.216087
2023-04-07T09:14:38.660Z,51.216068
2023-04-07T09:15:38.976Z,51.216190
2023-04-07T09:16:39.695Z,51.216248
2023-04-07T09:17:38.642Z,51.216034
2023-04-07T09:18:38.637Z,51.216057
2023-04-07T09:19:38.625Z,51.216068
2023-04-07T09:20:38.620Z,51.216003
2023-04-07T09:21:38.615Z,51.216038
2023-04-07T09:22:38.633Z,51.216103
2023-04-07T09:23:38.614Z,51.216053
2023-04-07T09:24:38.587Z,51.216034
2023-04-07T09:25:38.580Z,51.216011
2023-04-07T09:26:38.580Z,51.216072
2023-04-07T09:27:38.578Z,51.216106
2023-04-07T09:28:38.563Z,51.216000
2023-04-07T09:29:38.571Z,51.216038
2023-04-07T09:30:38.538Z,51.216110
2023-04-07T09:31:38.547Z,51.216057
2023-04-07T09:32:38.657Z,51.216045
2023-04-07T09:33:38.539Z,51.216106
2023-04-07T09:34:40.831Z,51.216099
2023-04-07T09:35:39.510Z,51.216137
2023-04-07T09:36:38.508Z,51.216042
2023-04-07T09:37:38.511Z,51.216015
2023-04-07T09:38:38.502Z,51.216057
2023-04-07T09:39:38.477Z,51.216011
2023-04-07T09:40:38.474Z,51.216080
2023-04-07T09:41:38.489Z,51.216064
2023-04-07T09:42:38.457Z,51.216167
2023-04-07T09:43:38.473Z,51.216213
2023-04-07T09:44:38.463Z,51.216145
2023-04-07T09:45:38.437Z,51.216053
2023-04-07T09:46:38.489Z,51.216038
2023-04-07T09:47:38.436Z,51.216125
2023-04-07T09:48:38.423Z,51.216026
2023-04-07T09:49:38.414Z,51.216068
2023-04-07T09:50:38.405Z,51.216099
2023-04-07T09:51:38.401Z,51.216145
2023-04-07T09:52:38.386Z,51.216068
2023-04-07T09:53:38.378Z,51.216152
2023-04-07T09:54:38.366Z,51.216206
2023-04-07T09:55:38.411Z,51.216228
2023-04-07T09:56:38.394Z,51.216042
2023-04-07T09:57:38.368Z,51.216084
2023-04-07T09:58:38.392Z,51.216145
2023-04-07T09:59:38.353Z,51.216187
2023-04-07T10:00:39.352Z,51.216148
2023-04-07T10:01:38.476Z,51.216103
2023-04-07T10:02:38.394Z,51.216125
2023-04-07T10:03:38.372Z,51.216240
2023-04-07T10:04:38.372Z,51.216312
2023-04-07T10:05:38.309Z,51.216179
2023-04-07T10:06:38.302Z,51.216133
2023-04-07T10:07:38.754Z,51.216190
2023-04-07T10:08:38.285Z,51.216244
2023-04-07T10:09:38.284Z,51.216232
2023-04-07T10:10:38.278Z,51.216240
2023-04-07T10:11:38.259Z,51.216110
2023-04-07T10:12:38.633Z,51.216171
2023-04-07T10:13:38.252Z,51.216022
2023-04-07T10:14:40.148Z,51.215874
2023-04-07T10:15:38.230Z,51.215733
2023-04-07T10:16:38.265Z,51.215748
2023-04-07T10:17:38.235Z,51.215874
2023-04-07T10:18:38.221Z,51.215958
2023-04-07T10:19:38.232Z,51.215881
2023-04-07T10:20:38.199Z,51.216145
2023-04-07T10:21:39.201Z,51.216309
2023-04-07T10:22:38.208Z,51.216274
2023-04-07T10:23:38.191Z,51.216312
2023-04-07T10:24:38.195Z,51.216156
2023-04-07T10:25:38.182Z,51.216244
2023-04-07T10:26:40.026Z,51.216362
2023-04-07T10:27:38.178Z,51.216137
2023-04-07T10:28:38.190Z,51.216164
2023-04-07T10:29:38.172Z,51.216446
2023-04-07T10:30:38.144Z,51.216530
2023-04-07T10:31:38.186Z,51.216434
2023-04-07T10:32:38.148Z,51.216305
2023-04-07T10:33:38.115Z,51.216141
2023-04-07T10:34:38.132Z,51.216381
2023-04-07T10:35:38.116Z,51.216160
2023-04-07T10:36:38.116Z,51.216179
2023-04-07T10:37:38.125Z,51.216042
2023-04-07T10:38:38.087Z,51.216122
2023-04-07T10:39:38.101Z,51.216129
2023-04-07T10:40:38.082Z,51.215862
2023-04-07T10:41:38.086Z,51.216030
2023-04-07T10:42:38.080Z,51.216072
2023-04-07T10:43:38.097Z,51.216148
2023-04-07T10:44:38.065Z,51.216183
2023-04-07T10:45:39.038Z,51.216194
2023-04-07T10:46:38.158Z,51.216106
2023-04-07T10:47:38.163Z,51.216034
2023-04-07T10:48:38.033Z,51.216133
2023-04-07T10:49:38.089Z,51.216053
2023-04-07T10:50:38.010Z,51.216026
2023-04-07T10:51:38.008Z,51.216114
2023-04-07T10:52:37.996Z,51.216068
2023-04-07T10:53:37.994Z,51.216114
2023-04-07T10:54:37.981Z,51.216179
2023-04-07T10:55:38.002Z,51.216244
2023-04-07T10:56:37.978Z,51.216072
2023-04-07T10:57:37.961Z,51.216042
2023-04-07T10:58:37.964Z,51.216145
2023-04-07T10:59:37.951Z,51.216148
2023-04-07T11:00:37.965Z,51.216171
2023-04-07T11:01:38.022Z,51.216183
2023-04-07T11:02:38.155Z,51.216141
2023-04-07T11:03:38.056Z,51.216198
2023-04-07T11:04:38.154Z,51.216171
2023-04-07T11:05:37.914Z,51.216118
2023-04-07T11:06:37.928Z,51.216133
2023-04-07T11:07:37.902Z,51.216164
2023-04-07T11:08:37.888Z,51.216206
2023-04-07T11:09:37.887Z,51.216259
2023-04-07T11:10:37.880Z,51.216175
2023-04-07T11:11:37.883Z,51.216213
2023-04-07T11:12:37.868Z,51.216152
2023-04-07T11:13:37.864Z,51.216160
2023-04-07T11:14:37.863Z,51.216156
2023-04-07T11:15:40.291Z,51.216133
2023-04-07T11:16:38.851Z,51.216129
2023-04-07T11:17:37.878Z,51.216164
2023-04-07T11:18:37.835Z,51.216160
2023-04-07T11:19:37.819Z,51.216125
2023-04-07T11:20:37.821Z,51.216080
2023-04-07T11:21:37.822Z,51.216080
2023-04-07T11:22:37.805Z,51.216198
2023-04-07T11:23:37.792Z,51.216160
2023-04-07T11:24:37.822Z,51.216198